Terminal Aerodrome Forecast
Issued by NWS Blacksburg, VA

Current Version | Previous Version | Text Only | Print | Product List | Glossary Off
Versions: 1 2 3 4 5 6 7 8 9 10 11 12 13 14 15 16 17 18 19 20 21 22 23 24 25 26 27 28 29 30 31 32 33 34 35

000
FTUS41 KRNK 111723
TAFBLF
TAF
KBLF 111723Z 1118/1218 28011G21KT P6SM SCT025
     FM112300 30004KT P6SM SCT120
     FM120900 22008KT P6SM BKN050 OVC100
     FM121400 23005KT 1/2SM SN BKN015 OVC025=

USA.gov is the U.S. government's official web portal to all federal, state and local government web resources and services.